sensor_id;sensor_type;location;lat;lon;timestamp;temperature;humidity
35111;DHT22;21290;50.158;8.658;2022-09-09T00:01:21;15.50;99.90
35111;DHT22;21290;50.158;8.658;2022-09-09T00:03:55;15.40;99.90
35111;DHT22;21290;50.158;8.658;2022-09-09T00:06:28;15.30;99.90
35111;DHT22;21290;50.158;8.658;2022-09-09T00:11:41;15.30;99.90
35111;DHT22;21290;50.158;8.658;2022-09-09T00:17:04;15.20;99.90
35111;DHT22;21290;50.158;8.658;2022-09-09T00:19:46;15.30;99.90
35111;DHT22;21290;50.158;8.658;2022-09-09T00:22:20;15.30;99.90
35111;DHT22;21290;50.158;8.658;2022-09-09T00:25:11;15.30;99.90
35111;DHT22;21290;50.158;8.658;2022-09-09T00:27:45;15.30;99.90
35111;DHT22;21290;50.158;8.658;2022-09-09T00:32:50;15.30;99.90
35111;DHT22;21290;50.158;8.658;2022-09-09T00:35:32;15.30;99.90
35111;DHT22;21290;50.158;8.658;2022-09-09T00:38:08;15.30;99.90
35111;DHT22;21290;50.158;8.658;2022-09-09T00:43:41;15.40;99.90
35111;DHT22;21290;50.158;8.658;2022-09-09T00:51:46;15.50;99.90
35111;DHT22;21290;50.158;8.658;2022-09-09T00:57:03;15.50;99.90
35111;DHT22;21290;50.158;8.658;2022-09-09T00:59:52;15.50;99.90
35111;DHT22;21290;50.158;8.658;2022-09-09T01:02:39;15.50;99.90
35111;DHT22;21290;50.158;8.658;2022-09-09T01:05:34;15.50;99.90
35111;DHT22;21290;50.158;8.658;2022-09-09T01:08:10;15.50;99.90
35111;DHT22;21290;50.158;8.658;2022-09-09T01:10:49;15.50;99.90
35111;DHT22;21290;50.158;8.658;2022-09-09T01:13:25;15.50;99.90
35111;DHT22;21290;50.158;8.658;2022-09-09T01:15:53;15.50;99.90
35111;DHT22;21290;50.158;8.658;2022-09-09T01:18:30;15.50;99.90
35111;DHT22;21290;50.158;8.658;2022-09-09T01:26:37;15.50;99.90
35111;DHT22;21290;50.158;8.658;2022-09-09T01:29:12;15.50;99.90
35111;DHT22;21290;50.158;8.658;2022-09-09T01:31:56;15.40;99.90
35111;DHT22;21290;50.158;8.658;2022-09-09T01:34:26;15.40;99.90
35111;DHT22;21290;50.158;8.658;2022-09-09T01:37:05;15.30;99.90
35111;DHT22;21290;50.158;8.658;2022-09-09T01:39:34;15.30;99.90
35111;DHT22;21290;50.158;8.658;2022-09-09T01:42:02;15.30;99.90
35111;DHT22;21290;50.158;8.658;2022-09-09T01:44:30;15.20;99.90
35111;DHT22;21290;50.158;8.658;2022-09-09T01:46:57;15.20;99.90
35111;DHT22;21290;50.158;8.658;2022-09-09T01:49:23;15.10;99.90
35111;DHT22;21290;50.158;8.658;2022-09-09T01:51:53;15.10;99.90
35111;DHT22;21290;50.158;8.658;2022-09-09T01:54:24;15.10;99.90
35111;DHT22;21290;50.158;8.658;2022-09-09T01:57:23;15.10;99.90
35111;DHT22;21290;50.158;8.658;2022-09-09T02:03:00;15.00;99.90
35111;DHT22;21290;50.158;8.658;2022-09-09T02:05:36;15.00;99.90
35111;DHT22;21290;50.158;8.658;2022-09-09T02:08:07;14.90;99.90
35111;DHT22;21290;50.158;8.658;2022-09-09T02:10:49;14.90;99.90
35111;DHT22;21290;50.158;8.658;2022-09-09T02:13:20;14.90;99.90
35111;DHT22;21290;50.158;8.658;2022-09-09T02:16:03;14.80;99.90
35111;DHT22;21290;50.158;8.658;2022-09-09T05:23:50;15.50;99.90
35111;DHT22;21290;50.158;8.658;2022-09-09T05:26:20;15.40;99.90
35111;DHT22;21290;50.158;8.658;2022-09-09T05:28:47;15.50;99.90
35111;DHT22;21290;50.158;8.658;2022-09-09T05:31:15;15.40;99.90
35111;DHT22;21290;50.158;8.658;2022-09-09T05:33:44;15.40;99.90
35111;DHT22;21290;50.158;8.658;2022-09-09T05:36:14;15.40;99.90
35111;DHT22;21290;50.158;8.658;2022-09-09T05:38:41;15.40;99.90
35111;DHT22;21290;50.158;8.658;2022-09-09T05:41:08;15.40;99.90
35111;DHT22;21290;50.158;8.658;2022-09-09T05:43:36;15.50;99.90
35111;DHT22;21290;50.158;8.658;2022-09-09T05:46:08;15.50;99.90
35111;DHT22;21290;50.158;8.658;2022-09-09T05:48:37;15.60;99.90
35111;DHT22;21290;50.158;8.658;2022-09-09T05:51:05;15.70;99.90
35111;DHT22;21290;50.158;8.658;2022-09-09T05:53:35;15.80;99.90
35111;DHT22;21290;50.158;8.658;2022-09-09T05:56:06;15.80;99.90
35111;DHT22;21290;50.158;8.658;2022-09-09T05:58:34;15.90;99.90
35111;DHT22;21290;50.158;8.658;2022-09-09T06:01:11;15.90;99.90
35111;DHT22;21290;50.158;8.658;2022-09-09T06:03:40;16.00;99.90
35111;DHT22;21290;50.158;8.658;2022-09-09T06:06:14;16.00;99.90
35111;DHT22;21290;50.158;8.658;2022-09-09T06:08:42;16.00;99.90
35111;DHT22;21290;50.158;8.658;2022-09-09T06:11:16;16.10;99.90
35111;DHT22;21290;50.158;8.658;2022-09-09T06:13:43;16.10;99.90
35111;DHT22;21290;50.158;8.658;2022-09-09T06:16:12;16.20;99.90
35111;DHT22;21290;50.158;8.658;2022-09-09T06:18:39;16.30;99.90
35111;DHT22;21290;50.158;8.658;2022-09-09T06:21:15;16.50;99.90
35111;DHT22;21290;50.158;8.658;2022-09-09T06:23:42;16.60;99.90
35111;DHT22;21290;50.158;8.658;2022-09-09T06:26:17;16.60;99.90
35111;DHT22;21290;50.158;8.658;2022-09-09T06:28:45;16.60;99.90
35111;DHT22;21290;50.158;8.658;2022-09-09T06:31:13;16.70;99.90
35111;DHT22;21290;50.158;8.658;2022-09-09T06:33:41;16.90;99.90
35111;DHT22;21290;50.158;8.658;2022-09-09T06:36:16;16.90;99.90
35111;DHT22;21290;50.158;8.658;2022-09-09T06:38:43;16.90;99.90
35111;DHT22;21290;50.158;8.658;2022-09-09T06:41:10;17.00;99.90
35111;DHT22;21290;50.158;8.658;2022-09-09T06:43:38;17.20;99.90
35111;DHT22;21290;50.158;8.658;2022-09-09T06:46:08;17.20;99.90
35111;DHT22;21290;50.158;8.658;2022-09-09T06:48:36;17.20;99.90
35111;DHT22;21290;50.158;8.658;2022-09-09T06:51:04;17.30;99.90
35111;DHT22;21290;50.158;8.658;2022-09-09T06:53:32;17.50;99.90
35111;DHT22;21290;50.158;8.658;2022-09-09T06:56:18;17.50;99.90
35111;DHT22;21290;50.158;8.658;2022-09-09T06:58:46;17.60;99.90
35111;DHT22;21290;50.158;8.658;2022-09-09T07:01:14;17.50;99.90
35111;DHT22;21290;50.158;8.658;2022-09-09T07:03:46;17.50;99.90
35111;DHT22;21290;50.158;8.658;2022-09-09T07:06:16;17.40;99.90
35111;DHT22;21290;50.158;8.658;2022-09-09T07:08:58;17.50;99.90
35111;DHT22;21290;50.158;8.658;2022-09-09T07:11:26;17.50;99.90
35111;DHT22;21290;50.158;8.658;2022-09-09T07:13:57;17.50;99.90
35111;DHT22;21290;50.158;8.658;2022-09-09T07:16:26;17.50;99.90
35111;DHT22;21290;50.158;8.658;2022-09-09T07:18:54;17.50;99.90
35111;DHT22;21290;50.158;8.658;2022-09-09T07:21:28;17.50;99.90
35111;DHT22;21290;50.158;8.658;2022-09-09T07:23:55;17.50;99.90
35111;DHT22;21290;50.158;8.658;2022-09-09T07:26:23;17.50;99.90
35111;DHT22;21290;50.158;8.658;2022-09-09T07:28:50;17.60;99.90
35111;DHT22;21290;50.158;8.658;2022-09-09T07:31:20;17.60;99.90
35111;DHT22;21290;50.158;8.658;2022-09-09T07:33:47;17.50;99.90
35111;DHT22;21290;50.158;8.658;2022-09-09T07:36:23;17.40;99.90
35111;DHT22;21290;50.158;8.658;2022-09-09T07:38:53;17.30;99.90
35111;DHT22;21290;50.158;8.658;2022-09-09T07:41:26;17.30;99.90
35111;DHT22;21290;50.158;8.658;2022-09-09T07:43:53;17.40;99.90
35111;DHT22;21290;50.158;8.658;2022-09-09T07:46:22;17.60;99.90
35111;DHT22;21290;50.158;8.658;2022-09-09T07:48:52;17.80;99.90
35111;DHT22;21290;50.158;8.658;2022-09-09T07:51:27;17.90;99.90
35111;DHT22;21290;50.158;8.658;2022-09-09T07:54:01;18.00;99.90
35111;DHT22;21290;50.158;8.658;2022-09-09T07:56:29;18.00;99.90
35111;DHT22;21290;50.158;8.658;2022-09-09T07:58:57;17.90;99.90
35111;DHT22;21290;50.158;8.658;2022-09-09T08:01:33;17.90;99.90
35111;DHT22;21290;50.158;8.658;2022-09-09T08:04:04;17.80;99.90
35111;DHT22;21290;50.158;8.658;2022-09-09T08:06:32;17.80;99.90
35111;DHT22;21290;50.158;8.658;2022-09-09T08:08:59;17.70;99.90
35111;DHT22;21290;50.158;8.658;2022-09-09T08:11:27;17.80;99.90
35111;DHT22;21290;50.158;8.658;2022-09-09T08:13:55;17.80;99.90
35111;DHT22;21290;50.158;8.658;2022-09-09T08:16:36;17.70;99.90
35111;DHT22;21290;50.158;8.658;2022-09-09T08:19:04;17.80;99.90
35111;DHT22;21290;50.158;8.658;2022-09-09T08:21:33;17.80;99.90
35111;DHT22;21290;50.158;8.658;2022-09-09T08:24:01;18.00;99.90
35111;DHT22;21290;50.158;8.658;2022-09-09T08:26:41;18.10;99.90
35111;DHT22;21290;50.158;8.658;2022-09-09T08:29:09;18.20;99.90
35111;DHT22;21290;50.158;8.658;2022-09-09T08:34:08;18.30;99.90
35111;DHT22;21290;50.158;8.658;2022-09-09T08:36:38;18.30;99.90
35111;DHT22;21290;50.158;8.658;2022-09-09T08:39:07;18.30;99.90
35111;DHT22;21290;50.158;8.658;2022-09-09T08:44:49;19.30;99.90
35111;DHT22;21290;50.158;8.658;2022-09-09T08:50:19;19.30;99.90
35111;DHT22;21290;50.158;8.658;2022-09-09T08:53:05;19.10;99.90
35111;DHT22;21290;50.158;8.658;2022-09-09T08:55:48;19.10;99.90
35111;DHT22;21290;50.158;8.658;2022-09-09T08:58:18;19.10;99.90
35111;DHT22;21290;50.158;8.658;2022-09-09T09:06:39;19.30;99.90
35111;DHT22;21290;50.158;8.658;2022-09-09T09:12:19;19.90;99.90
35111;DHT22;21290;50.158;8.658;2022-09-09T09:14:48;20.00;99.90
35111;DHT22;21290;50.158;8.658;2022-09-09T09:17:20;19.90;99.90
35111;DHT22;21290;50.158;8.658;2022-09-09T09:19:48;19.70;99.90
35111;DHT22;21290;50.158;8.658;2022-09-09T09:25:21;19.40;99.90
35111;DHT22;21290;50.158;8.658;2022-09-09T09:27:57;19.30;99.90
35111;DHT22;21290;50.158;8.658;2022-09-09T09:30:35;19.50;99.90
35111;DHT22;21290;50.158;8.658;2022-09-09T09:35:53;20.80;99.90
35111;DHT22;21290;50.158;8.658;2022-09-09T09:38:22;22.30;99.90
35111;DHT22;21290;50.158;8.658;2022-09-09T09:41:10;22.30;99.90
35111;DHT22;21290;50.158;8.658;2022-09-09T09:43:40;24.10;99.90
35111;DHT22;21290;50.158;8.658;2022-09-09T09:46:20;26.10;99.50
35111;DHT22;21290;50.158;8.658;2022-09-09T09:49:00;26.30;97.00
35111;DHT22;21290;50.158;8.658;2022-09-09T09:51:30;24.80;98.10
35111;DHT22;21290;50.158;8.658;2022-09-09T09:56:36;21.70;99.90
35111;DHT22;21290;50.158;8.658;2022-09-09T09:59:03;21.10;99.90
35111;DHT22;21290;50.158;8.658;2022-09-09T10:01:43;21.10;99.90
35111;DHT22;21290;50.158;8.658;2022-09-09T10:04:21;22.80;99.90
35111;DHT22;21290;50.158;8.658;2022-09-09T10:06:50;25.30;99.90
35111;DHT22;21290;50.158;8.658;2022-09-09T10:09:28;27.70;96.50
35111;DHT22;21290;50.158;8.658;2022-09-09T10:12:12;29.60;93.20
35111;DHT22;21290;50.158;8.658;2022-09-09T10:15:04;29.90;90.40
35111;DHT22;21290;50.158;8.658;2022-09-09T10:31:57;19.60;99.90
35111;DHT22;21290;50.158;8.658;2022-09-09T10:37:37;19.50;99.90
35111;DHT22;21290;50.158;8.658;2022-09-09T10:40:31;19.60;99.90
35111;DHT22;21290;50.158;8.658;2022-09-09T10:43:00;19.60;99.90
35111;DHT22;21290;50.158;8.658;2022-09-09T10:46:00;19.30;99.90
35111;DHT22;21290;50.158;8.658;2022-09-09T10:56:49;16.20;99.90
35111;DHT22;21290;50.158;8.658;2022-09-09T10:59:24;16.10;99.90
35111;DHT22;21290;50.158;8.658;2022-09-09T11:04:27;15.90;99.90
35111;DHT22;21290;50.158;8.658;2022-09-09T11:06:58;16.20;99.90
35111;DHT22;21290;50.158;8.658;2022-09-09T11:09:43;16.60;99.90
35111;DHT22;21290;50.158;8.658;2022-09-09T11:12:17;17.10;99.90
35111;DHT22;21290;50.158;8.658;2022-09-09T11:14:53;18.00;99.90
35111;DHT22;21290;50.158;8.658;2022-09-09T11:17:26;19.90;99.90
35111;DHT22;21290;50.158;8.658;2022-09-09T11:19:53;22.20;99.90
35111;DHT22;21290;50.158;8.658;2022-09-09T11:22:31;24.10;99.90
35111;DHT22;21290;50.158;8.658;2022-09-09T11:25:16;24.80;99.90
35111;DHT22;21290;50.158;8.658;2022-09-09T11:30:35;24.80;99.90
35111;DHT22;21290;50.158;8.658;2022-09-09T11:38:53;29.90;98.10
35111;DHT22;21290;50.158;8.658;2022-09-09T11:41:23;30.60;92.90
35111;DHT22;21290;50.158;8.658;2022-09-09T11:44:00;30.50;87.50
35111;DHT22;21290;50.158;8.658;2022-09-09T11:46:38;29.20;87.60
35111;DHT22;21290;50.158;8.658;2022-09-09T11:49:21;27.90;89.20
35111;DHT22;21290;50.158;8.658;2022-09-09T11:51:51;27.40;91.60
35111;DHT22;21290;50.158;8.658;2022-09-09T11:54:29;26.70;91.10
35111;DHT22;21290;50.158;8.658;2022-09-09T11:56:56;25.50;92.80
35111;DHT22;21290;50.158;8.658;2022-09-09T11:59:28;24.40;93.10
35111;DHT22;21290;50.158;8.658;2022-09-09T12:02:12;23.70;95.90
35111;DHT22;21290;50.158;8.658;2022-09-09T12:05:07;23.00;97.00
35111;DHT22;21290;50.158;8.658;2022-09-09T12:07:41;22.40;98.80
35111;DHT22;21290;50.158;8.658;2022-09-09T12:12:44;21.50;99.90
35111;DHT22;21290;50.158;8.658;2022-09-09T12:17:43;21.20;99.90
35111;DHT22;21290;50.158;8.658;2022-09-09T12:20:16;21.10;99.90
35111;DHT22;21290;50.158;8.658;2022-09-09T12:25:45;20.60;99.90
35111;DHT22;21290;50.158;8.658;2022-09-09T12:28:23;20.50;99.90
35111;DHT22;21290;50.158;8.658;2022-09-09T12:33:55;20.60;99.90
35111;DHT22;21290;50.158;8.658;2022-09-09T12:36:25;20.80;99.90
35111;DHT22;21290;50.158;8.658;2022-09-09T12:38:57;20.80;99.90
35111;DHT22;21290;50.158;8.658;2022-09-09T12:41:27;20.90;99.90
35111;DHT22;21290;50.158;8.658;2022-09-09T12:44:05;20.90;99.90
35111;DHT22;21290;50.158;8.658;2022-09-09T12:46:39;20.80;99.90
35111;DHT22;21290;50.158;8.658;2022-09-09T12:49:32;20.70;99.90
35111;DHT22;21290;50.158;8.658;2022-09-09T12:52:06;20.50;99.90
35111;DHT22;21290;50.158;8.658;2022-09-09T12:54:35;20.10;99.90
35111;DHT22;21290;50.158;8.658;2022-09-09T12:57:04;19.40;99.90
35111;DHT22;21290;50.158;8.658;2022-09-09T12:59:39;18.60;99.90
35111;DHT22;21290;50.158;8.658;2022-09-09T13:02:26;17.90;99.90
35111;DHT22;21290;50.158;8.658;2022-09-09T13:04:54;17.40;99.90
35111;DHT22;21290;50.158;8.658;2022-09-09T13:07:22;17.20;99.90
35111;DHT22;21290;50.158;8.658;2022-09-09T13:09:49;17.10;99.90
35111;DHT22;21290;50.158;8.658;2022-09-09T13:12:21;17.10;99.90
35111;DHT22;21290;50.158;8.658;2022-09-09T13:14:53;17.10;99.90
35111;DHT22;21290;50.158;8.658;2022-09-09T13:17:25;17.20;99.90
35111;DHT22;21290;50.158;8.658;2022-09-09T13:19:53;17.60;99.90
35111;DHT22;21290;50.158;8.658;2022-09-09T13:22:35;18.00;99.90
35111;DHT22;21290;50.158;8.658;2022-09-09T13:25:06;18.50;99.90
35111;DHT22;21290;50.158;8.658;2022-09-09T13:27:41;18.80;99.90
35111;DHT22;21290;50.158;8.658;2022-09-09T13:30:20;19.10;99.90
35111;DHT22;21290;50.158;8.658;2022-09-09T13:38:15;19.70;99.90
35111;DHT22;21290;50.158;8.658;2022-09-09T13:40:55;19.80;99.90
35111;DHT22;21290;50.158;8.658;2022-09-09T13:43:24;20.00;99.90
35111;DHT22;21290;50.158;8.658;2022-09-09T13:46:05;19.90;99.90
35111;DHT22;21290;50.158;8.658;2022-09-09T13:48:54;19.70;99.90
35111;DHT22;21290;50.158;8.658;2022-09-09T13:51:33;19.70;99.90
35111;DHT22;21290;50.158;8.658;2022-09-09T13:54:01;19.80;99.90
35111;DHT22;21290;50.158;8.658;2022-09-09T13:56:27;19.90;99.90
35111;DHT22;21290;50.158;8.658;2022-09-09T13:58:55;20.00;99.90
35111;DHT22;21290;50.158;8.658;2022-09-09T14:01:21;20.10;99.90
35111;DHT22;21290;50.158;8.658;2022-09-09T14:03:54;20.20;99.90
35111;DHT22;21290;50.158;8.658;2022-09-09T14:06:21;20.30;99.90
35111;DHT22;21290;50.158;8.658;2022-09-09T14:08:51;20.30;99.90
35111;DHT22;21290;50.158;8.658;2022-09-09T14:11:18;20.10;99.90
35111;DHT22;21290;50.158;8.658;2022-09-09T14:13:45;19.70;99.90
35111;DHT22;21290;50.158;8.658;2022-09-09T14:16:12;19.30;99.90
35111;DHT22;21290;50.158;8.658;2022-09-09T14:18:38;19.10;99.90
35111;DHT22;21290;50.158;8.658;2022-09-09T14:21:05;19.00;99.90
35111;DHT22;21290;50.158;8.658;2022-09-09T14:23:32;18.90;99.90
35111;DHT22;21290;50.158;8.658;2022-09-09T14:25:58;18.90;99.90
35111;DHT22;21290;50.158;8.658;2022-09-09T14:28:25;18.90;99.90
35111;DHT22;21290;50.158;8.658;2022-09-09T14:31:12;18.90;99.90
35111;DHT22;21290;50.158;8.658;2022-09-09T14:33:40;19.00;99.90
35111;DHT22;21290;50.158;8.658;2022-09-09T14:36:07;19.10;99.90
35111;DHT22;21290;50.158;8.658;2022-09-09T14:38:35;19.10;99.90
35111;DHT22;21290;50.158;8.658;2022-09-09T14:41:06;19.10;99.90
35111;DHT22;21290;50.158;8.658;2022-09-09T14:43:33;19.20;99.90
35111;DHT22;21290;50.158;8.658;2022-09-09T14:46:07;19.30;99.90
35111;DHT22;21290;50.158;8.658;2022-09-09T14:48:35;19.30;99.90
35111;DHT22;21290;50.158;8.658;2022-09-09T14:51:12;19.30;99.90
35111;DHT22;21290;50.158;8.658;2022-09-09T14:53:40;19.20;99.90
35111;DHT22;21290;50.158;8.658;2022-09-09T14:56:09;19.20;99.90
35111;DHT22;21290;50.158;8.658;2022-09-09T14:58:37;19.00;99.90
35111;DHT22;21290;50.158;8.658;2022-09-09T15:01:13;19.00;99.90
35111;DHT22;21290;50.158;8.658;2022-09-09T15:03:42;19.00;99.90
35111;DHT22;21290;50.158;8.658;2022-09-09T15:06:12;19.10;99.90
35111;DHT22;21290;50.158;8.658;2022-09-09T15:08:44;19.20;99.90
35111;DHT22;21290;50.158;8.658;2022-09-09T15:11:13;19.40;99.90
35111;DHT22;21290;50.158;8.658;2022-09-09T15:13:41;19.50;99.90
35111;DHT22;21290;50.158;8.658;2022-09-09T15:16:14;19.60;99.90
35111;DHT22;21290;50.158;8.658;2022-09-09T15:18:41;19.60;99.90
35111;DHT22;21290;50.158;8.658;2022-09-09T15:21:14;19.70;99.90
35111;DHT22;21290;50.158;8.658;2022-09-09T15:23:42;20.00;99.90
35111;DHT22;21290;50.158;8.658;2022-09-09T15:26:09;20.20;99.90
35111;DHT22;21290;50.158;8.658;2022-09-09T15:28:37;20.20;99.90
35111;DHT22;21290;50.158;8.658;2022-09-09T15:31:11;20.20;99.90
35111;DHT22;21290;50.158;8.658;2022-09-09T15:33:38;20.20;99.90
35111;DHT22;21290;50.158;8.658;2022-09-09T15:36:23;20.20;99.90
35111;DHT22;21290;50.158;8.658;2022-09-09T15:38:50;20.30;99.90
35111;DHT22;21290;50.158;8.658;2022-09-09T15:41:19;20.40;99.90
35111;DHT22;21290;50.158;8.658;2022-09-09T15:43:47;20.40;99.90
35111;DHT22;21290;50.158;8.658;2022-09-09T15:46:23;20.40;99.90
35111;DHT22;21290;50.158;8.658;2022-09-09T15:48:50;20.40;99.90
35111;DHT22;21290;50.158;8.658;2022-09-09T15:51:20;20.30;99.90
35111;DHT22;21290;50.158;8.658;2022-09-09T15:54:07;20.20;99.90
35111;DHT22;21290;50.158;8.658;2022-09-09T15:56:33;20.00;99.90
35111;DHT22;21290;50.158;8.658;2022-09-09T15:59:02;19.90;99.90
35111;DHT22;21290;50.158;8.658;2022-09-09T16:01:29;19.70;99.90
35111;DHT22;21290;50.158;8.658;2022-09-09T16:03:58;19.60;99.90
35111;DHT22;21290;50.158;8.658;2022-09-09T16:06:27;19.40;99.90
35111;DHT22;21290;50.158;8.658;2022-09-09T16:08:56;19.30;99.90
35111;DHT22;21290;50.158;8.658;2022-09-09T16:11:27;19.20;99.90
35111;DHT22;21290;50.158;8.658;2022-09-09T16:13:54;19.10;99.90
35111;DHT22;21290;50.158;8.658;2022-09-09T16:16:23;19.00;99.90
35111;DHT22;21290;50.158;8.658;2022-09-09T16:18:52;18.90;99.90
35111;DHT22;21290;50.158;8.658;2022-09-09T16:21:26;18.90;99.90
35111;DHT22;21290;50.158;8.658;2022-09-09T16:23:57;18.80;99.90
35111;DHT22;21290;50.158;8.658;2022-09-09T16:26:26;18.80;99.90
35111;DHT22;21290;50.158;8.658;2022-09-09T16:28:53;18.70;99.90
35111;DHT22;21290;50.158;8.658;2022-09-09T16:31:25;18.70;99.90
35111;DHT22;21290;50.158;8.658;2022-09-09T16:33:53;18.70;99.90
35111;DHT22;21290;50.158;8.658;2022-09-09T16:36:23;18.70;99.90
35111;DHT22;21290;50.158;8.658;2022-09-09T16:38:54;18.70;99.90
35111;DHT22;21290;50.158;8.658;2022-09-09T16:41:21;18.60;99.90
35111;DHT22;21290;50.158;8.658;2022-09-09T16:44:02;18.60;99.90
35111;DHT22;21290;50.158;8.658;2022-09-09T16:46:31;18.60;99.90
35111;DHT22;21290;50.158;8.658;2022-09-09T16:48:58;18.50;99.90
35111;DHT22;21290;50.158;8.658;2022-09-09T16:51:31;18.50;99.90
35111;DHT22;21290;50.158;8.658;2022-09-09T16:54:00;18.50;99.90
35111;DHT22;21290;50.158;8.658;2022-09-09T16:56:28;18.50;99.90
35111;DHT22;21290;50.158;8.658;2022-09-09T16:58:57;18.50;99.90
35111;DHT22;21290;50.158;8.658;2022-09-09T17:01:28;18.40;99.90
35111;DHT22;21290;50.158;8.658;2022-09-09T17:03:56;18.50;99.90
35111;DHT22;21290;50.158;8.658;2022-09-09T17:06:28;18.40;99.90
35111;DHT22;21290;50.158;8.658;2022-09-09T17:08:56;18.30;99.90
35111;DHT22;21290;50.158;8.658;2022-09-09T17:11:23;18.40;99.90
35111;DHT22;21290;50.158;8.658;2022-09-09T17:13:52;18.30;99.90
35111;DHT22;21290;50.158;8.658;2022-09-09T17:16:20;18.30;99.90
35111;DHT22;21290;50.158;8.658;2022-09-09T17:18:49;18.30;99.90
35111;DHT22;21290;50.158;8.658;2022-09-09T17:21:18;18.30;99.90
35111;DHT22;21290;50.158;8.658;2022-09-09T17:23:46;18.20;99.90
35111;DHT22;21290;50.158;8.658;2022-09-09T17:26:16;18.20;99.90
35111;DHT22;21290;50.158;8.658;2022-09-09T17:28:43;18.20;99.90
35111;DHT22;21290;50.158;8.658;2022-09-09T17:31:14;18.20;99.90
35111;DHT22;21290;50.158;8.658;2022-09-09T17:33:44;18.10;99.90
35111;DHT22;21290;50.158;8.658;2022-09-09T17:38:41;18.10;99.90
35111;DHT22;21290;50.158;8.658;2022-09-09T17:41:15;18.00;99.90
35111;DHT22;21290;50.158;8.658;2022-09-09T17:43:42;18.00;99.90
35111;DHT22;21290;50.158;8.658;2022-09-09T17:46:13;18.00;99.90
35111;DHT22;21290;50.158;8.658;2022-09-09T17:48:40;18.00;99.90
35111;DHT22;21290;50.158;8.658;2022-09-09T17:51:15;17.90;99.90
35111;DHT22;21290;50.158;8.658;2022-09-09T17:53:45;17.90;99.90
35111;DHT22;21290;50.158;8.658;2022-09-09T17:56:13;17.90;99.90
35111;DHT22;21290;50.158;8.658;2022-09-09T17:58:41;17.90;99.90
35111;DHT22;21290;50.158;8.658;2022-09-09T18:01:10;17.90;99.90
35111;DHT22;21290;50.158;8.658;2022-09-09T18:03:39;17.90;99.90
35111;DHT22;21290;50.158;8.658;2022-09-09T18:06:08;17.80;99.90
35111;DHT22;21290;50.158;8.658;2022-09-09T18:08:35;17.80;99.90
35111;DHT22;21290;50.158;8.658;2022-09-09T18:11:03;17.80;99.90
35111;DHT22;21290;50.158;8.658;2022-09-09T18:13:30;17.70;99.90
35111;DHT22;21290;50.158;8.658;2022-09-09T18:15:57;17.70;99.90
35111;DHT22;21290;50.158;8.658;2022-09-09T18:18:24;17.60;99.90
35111;DHT22;21290;50.158;8.658;2022-09-09T18:21:02;17.60;99.90
35111;DHT22;21290;50.158;8.658;2022-09-09T18:23:29;17.50;99.90
35111;DHT22;21290;50.158;8.658;2022-09-09T18:25:56;17.40;99.90
35111;DHT22;21290;50.158;8.658;2022-09-09T18:28:25;17.40;99.90
35111;DHT22;21290;50.158;8.658;2022-09-09T18:30:52;17.30;99.90
35111;DHT22;21290;50.158;8.658;2022-09-09T18:33:19;17.30;99.90
35111;DHT22;21290;50.158;8.658;2022-09-09T18:35:46;17.30;99.90
35111;DHT22;21290;50.158;8.658;2022-09-09T18:38:13;17.20;99.90
35111;DHT22;21290;50.158;8.658;2022-09-09T18:40:42;17.20;99.90
35111;DHT22;21290;50.158;8.658;2022-09-09T18:43:09;17.20;99.90
35111;DHT22;21290;50.158;8.658;2022-09-09T18:45:38;17.10;99.90
35111;DHT22;21290;50.158;8.658;2022-09-09T18:48:04;17.10;99.90
35111;DHT22;21290;50.158;8.658;2022-09-09T18:50:33;17.00;99.90
35111;DHT22;21290;50.158;8.658;2022-09-09T18:52:59;17.00;99.90
35111;DHT22;21290;50.158;8.658;2022-09-09T18:55:26;17.00;99.90
35111;DHT22;21290;50.158;8.658;2022-09-09T18:57:54;17.00;99.90
35111;DHT22;21290;50.158;8.658;2022-09-09T19:00:24;16.90;99.90
35111;DHT22;21290;50.158;8.658;2022-09-09T19:02:50;16.90;99.90
35111;DHT22;21290;50.158;8.658;2022-09-09T19:05:18;16.80;99.90
35111;DHT22;21290;50.158;8.658;2022-09-09T19:07:44;16.80;99.90
35111;DHT22;21290;50.158;8.658;2022-09-09T19:10:11;16.80;99.90
35111;DHT22;21290;50.158;8.658;2022-09-09T19:12:38;16.70;99.90
35111;DHT22;21290;50.158;8.658;2022-09-09T19:15:06;16.80;99.90
35111;DHT22;21290;50.158;8.658;2022-09-09T19:17:33;16.70;99.90
35111;DHT22;21290;50.158;8.658;2022-09-09T19:20:01;16.60;99.90
35111;DHT22;21290;50.158;8.658;2022-09-09T19:22:27;16.60;99.90
35111;DHT22;21290;50.158;8.658;2022-09-09T19:24:54;16.50;99.90
35111;DHT22;21290;50.158;8.658;2022-09-09T19:27:21;16.40;99.90
35111;DHT22;21290;50.158;8.658;2022-09-09T19:29:48;16.30;99.90
35111;DHT22;21290;50.158;8.658;2022-09-09T19:32:20;16.20;99.90
35111;DHT22;21290;50.158;8.658;2022-09-09T19:35:07;16.10;99.90
35111;DHT22;21290;50.158;8.658;2022-09-09T19:37:34;15.90;99.90
35111;DHT22;21290;50.158;8.658;2022-09-09T19:40:02;15.90;99.90
35111;DHT22;21290;50.158;8.658;2022-09-09T19:42:30;15.80;99.90
35111;DHT22;21290;50.158;8.658;2022-09-09T19:44:57;15.70;99.90
35111;DHT22;21290;50.158;8.658;2022-09-09T19:47:24;15.60;99.90
35111;DHT22;21290;50.158;8.658;2022-09-09T19:49:50;15.50;99.90
35111;DHT22;21290;50.158;8.658;2022-09-09T19:52:17;15.40;99.90
35111;DHT22;21290;50.158;8.658;2022-09-09T19:54:44;15.20;99.90
35111;DHT22;21290;50.158;8.658;2022-09-09T19:57:12;15.20;99.90
35111;DHT22;21290;50.158;8.658;2022-09-09T19:59:39;15.10;99.90
35111;DHT22;21290;50.158;8.658;2022-09-09T20:02:05;15.10;99.90
35111;DHT22;21290;50.158;8.658;2022-09-09T20:04:32;15.00;99.90
35111;DHT22;21290;50.158;8.658;2022-09-09T20:07:00;15.00;99.90
35111;DHT22;21290;50.158;8.658;2022-09-09T20:09:27;15.00;99.90
35111;DHT22;21290;50.158;8.658;2022-09-09T20:11:55;14.90;99.90
35111;DHT22;21290;50.158;8.658;2022-09-09T20:14:22;14.90;99.90
35111;DHT22;21290;50.158;8.658;2022-09-09T20:16:49;14.90;99.90
35111;DHT22;21290;50.158;8.658;2022-09-09T20:19:15;14.90;99.90
35111;DHT22;21290;50.158;8.658;2022-09-09T20:21:44;14.90;99.90
35111;DHT22;21290;50.158;8.658;2022-09-09T20:24:15;14.90;99.90
35111;DHT22;21290;50.158;8.658;2022-09-09T20:26:42;14.90;99.90
35111;DHT22;21290;50.158;8.658;2022-09-09T20:29:12;14.90;99.90
35111;DHT22;21290;50.158;8.658;2022-09-09T20:31:42;14.90;99.90
35111;DHT22;21290;50.158;8.658;2022-09-09T20:34:12;14.90;99.90
35111;DHT22;21290;50.158;8.658;2022-09-09T20:36:39;14.80;99.90
35111;DHT22;21290;50.158;8.658;2022-09-09T20:39:09;14.80;99.90
35111;DHT22;21290;50.158;8.658;2022-09-09T20:41:37;14.80;99.90
35111;DHT22;21290;50.158;8.658;2022-09-09T20:44:15;14.90;99.90
35111;DHT22;21290;50.158;8.658;2022-09-09T20:46:45;14.90;99.90
35111;DHT22;21290;50.158;8.658;2022-09-09T20:49:14;14.80;99.90
35111;DHT22;21290;50.158;8.658;2022-09-09T20:51:44;14.80;99.90